EPRZ/RZE METAR and TAF weather

Enter ICAO airport designator
Station Type Date Time Source
EPRZ METAR 2019/04/21 22:00 UTC NOAA

EPRZ 212200Z 04008KT CAVOK 09/05 Q1018


Station Type Date Time Source
EPRZ Decoded METAR 2019/04/21 22:00 UTC NOAA

Rzeszow-Jasionka, Poland (EPRZ) 50-06N 022-03E 202M
Apr 21, 2019 - 06:00 PM EDT / 2019.04.21 2200 UTC
Wind: from the NE (040 degrees) at 9 MPH (8 KT):0
Visibility: greater than 7 mile(s):0
Temperature: 48 F (9 C)
Dew Point: 41 F (5 C)
Relative Humidity: 75%
Pressure (altimeter): 30.06 in. Hg (1018 hPa)
ob: EPRZ 212200Z 04008KT CAVOK 09/05 Q1018
cycle: 22

Station Type Date Time Source
EPRZ TAF 2019/04/21 18:33 UTC NOAA

TAF EPRZ 211730Z 2118/2218 VRB02KT 9999 SCT050
TEMPO 2118/2209 VRB16G28KT 4000 SHRA BKN030CB PROB40
TEMPO 2118/2209 TSRA
BECMG 2206/2209 10013KT
TEMPO 2209/2218 11018G30KT PROB40
TEMPO 2209/2213 SCT040CB

Example: see airport list